• Join FlightAware (Why Join?)
  • Login
  • US Flag 
06:44PM EDT


 

Airport Tracker/Info


-or-


 

Live Flight TrackerFlight Track Log ✈ SWA685 ✈ 11-May-2013 ✈ KSAN - KHOU

Flight Track Log - Related Links

Times and Time Zones

All times are in EDT time to prevent confusion due to time zone crossing. See the SWA685 flight status page for this flight to view local times or setup timezone preferences in your user account.

Time Position Orientation Groundspeed Altitude Reporting Facility
EDT Latitude Longitude Course Direction KTS MPH feet Rate Location/Type
11:30AM 32.7500 -117.2167 271° West 168 193 1,300  Level Southern California TRACON
11:31AM 32.7511 -117.3147 271° West 234 269 4,400 2,700 Climbing Los Angeles Center
11:32AM 32.6847 -117.3031 172° South 262 302 7,500 3,000 Climbing Los Angeles Center
11:33AM 32.6475 -117.2256 120° Southeast 273 314 10,700 2,340 Climbing Los Angeles Center
11:34AM 32.6311 -117.1142 100° East 327 376 12,400 2,220 Climbing Los Angeles Center
11:35AM 32.6136 -116.9933 100° East 364 419 15,300 2,520 Climbing Los Angeles Center
11:36AM 32.6219 -116.8653 86° East 386 444 17,700 2,280 Climbing Los Angeles Center
11:37AM 32.6342 -116.7325 84° East 402 463 20,100 2,340 Climbing Los Angeles Center
11:38AM 32.6508 -116.5656 83° East 427 491 22,600 2,160 Climbing Los Angeles Center
11:39AM 32.6633 -116.4239 84° East 438 504 24,600 1,740 Climbing Los Angeles Center
11:40AM 32.6775 -116.2792 83° East 447 514 26,300 1,560 Climbing Los Angeles Center
11:41AM 32.6922 -116.1297 83° East 463 533 27,900 2,040 Climbing Los Angeles Center
11:42AM 32.7083 -115.9533 84° East 454 522 30,600 2,340 Climbing Los Angeles Center
11:43AM 32.7217 -115.8094 84° East 445 512 32,700 1,740 Climbing Los Angeles Center
11:44AM 32.7347 -115.6675 84° East 437 503 34,200 1,440 Climbing Los Angeles Center
11:45AM 32.7469 -115.5283 84° East 430 495 35,700 1,200 Climbing Los Angeles Center
11:46AM 32.7536 -115.3864 87° East 431 496 36,700 600 Climbing Los Angeles Center
11:47AM 32.7572 -115.2419 88° East 436 502 37,000 120 Climbing Los Angeles Center
11:48AM 32.7619 -115.0986 88° East 435 501 37,000 240 Level Los Angeles Center
11:49AM 32.7667 -114.9292 88° East 430 495 37,600 600 Climbing Los Angeles Center
11:50AM 32.7683 -114.7842 89° East 437 503 38,300 660 Climbing Los Angeles Center
11:51AM 32.7686 -114.6386 90° East 440 506 39,000 300 Climbing Los Angeles Center
11:52AM 32.7617 -114.4922 93° East 443 510 39,000  Level Los Angeles Center
11:53AM 32.7489 -114.3447 96° East 445 512 39,000  Level Los Angeles Center
11:54AM 32.7372 -114.1972 95° East 447 514 39,000  Level Los Angeles Center
11:55AM 32.7308 -114.1242 96° East 448 516 39,000  Level Albuquerque Center
11:56AM 32.7175 -113.9783 96° East 447 514 39,000  Level Albuquerque Center
11:57AM 32.7019 -113.8025 96° East 447 514 39,000  Level Albuquerque Center
11:58AM 32.6889 -113.6561 96° East 446 513 39,000  Level Albuquerque Center
11:59AM 32.6769 -113.5117 96° East 443 510 39,000  Level Albuquerque Center
12:00PM 32.6636 -113.3658 96° East 444 511 39,000  Level Albuquerque Center
12:01PM 32.6492 -113.2200 97° East 443 510 39,000  Level Albuquerque Center
12:02PM 32.6364 -113.0742 96° East 442 509 39,000  Level Albuquerque Center
12:03PM 32.6239 -112.9278 96° East 441 507 39,000  Level Albuquerque Center
12:04PM 32.6094 -112.7806 97° East 442 509 39,000  Level Albuquerque Center
12:05PM 32.5947 -112.6347 97° East 442 509 39,000  Level Albuquerque Center
12:06PM 32.5806 -112.4889 97° East 444 511 39,000  Level Albuquerque Center
12:07PM 32.5667 -112.3419 96° East 447 514 39,000  Level Albuquerque Center
12:08PM 32.5508 -112.1850 97° East 447 514 39,000  Level Albuquerque Center
12:09PM 32.5364 -112.0400 97° East 446 513 39,000  Level Albuquerque Center
12:10PM 32.5219 -111.8944 97° East 447 514 39,000  Level Albuquerque Center
12:11PM 32.5031 -111.7206 97° East 446 513 39,000  Level Albuquerque Center
12:12PM 32.4883 -111.5761 97° East 445 512 39,000  Level Albuquerque Center
12:13PM 32.4728 -111.4303 97° East 447 514 39,000  Level Albuquerque Center
12:14PM 32.4572 -111.2850 97° East 447 514 39,000  Level Albuquerque Center
12:16PM 32.4417 -111.1367 97° East 453 521 39,000  Level Albuquerque Center
12:17PM 32.4256 -110.9919 97° East 448 516 39,000  Level Albuquerque Center
12:18PM 32.4086 -110.8439 98° East 454 522 39,000  Level Albuquerque Center
12:19PM 32.3894 -110.6683 97° East 452 520 39,000  Level Albuquerque Center
12:20PM 32.3731 -110.5228 98° East 450 518 39,000  Level Albuquerque Center
12:21PM 32.3558 -110.3750 98° East 453 521 39,000  Level Albuquerque Center
12:22PM 32.3381 -110.2217 98° East 457 526 39,000  Level Albuquerque Center
12:23PM 32.3211 -110.0731 98° East 459 528 39,000  Level Albuquerque Center
12:24PM 32.3014 -109.9244 99° East 462 532 39,000  Level Albuquerque Center
12:25PM 32.2825 -109.7775 99° East 460 529 39,000  Level Albuquerque Center
12:26PM 32.2622 -109.6017 98° East 456 525 39,000  Level Albuquerque Center
12:27PM 32.2450 -109.4564 98° East 454 522 39,000  Level Albuquerque Center
12:28PM 32.2272 -109.3100 98° East 456 525 39,000  Level Albuquerque Center
12:29PM 32.2097 -109.1644 98° East 455 524 39,000  Level Albuquerque Center
12:30PM 32.1906 -109.0167 99° East 458 527 39,000  Level Albuquerque Center
12:31PM 32.1678 -108.8397 99° East 461 531 39,000  Level Albuquerque Center
12:32PM 32.1500 -108.6914 98° East 461 531 39,000  Level Albuquerque Center
12:33PM 32.1308 -108.5433 99° East 464 534 39,000  Level Albuquerque Center
12:34PM 32.1119 -108.3944 98° East 465 535 39,000  Level Albuquerque Center
12:35PM 32.0914 -108.2447 99° East 467 537 39,000  Level Albuquerque Center
12:36PM 32.0689 -108.0694 99° East 467 537 39,000  Level Albuquerque Center
12:37PM 32.0475 -107.9200 100° East 466 536 39,000  Level Albuquerque Center
12:38PM 32.0281 -107.7694 99° East 467 537 39,000  Level Albuquerque Center
12:39PM 32.0075 -107.6197 99° East 468 539 39,000  Level Albuquerque Center
12:40PM 31.9872 -107.4703 99° East 467 537 39,000  Level Albuquerque Center
12:41PM 31.9628 -107.2906 99° East 467 537 39,000  Level Albuquerque Center
12:42PM 31.9422 -107.1422 99° East 465 535 39,000  Level Albuquerque Center
12:43PM 31.9211 -106.9939 99° East 464 534 39,000  Level Albuquerque Center
12:44PM 31.9006 -106.8464 99° East 462 532 39,000  Level Albuquerque Center
12:45PM 31.8781 -106.6992 100° East 463 533 39,000  Level Albuquerque Center
12:46PM 31.8539 -106.5369 100° East 464 534 39,000  Level Albuquerque Center
12:47PM 31.8333 -106.3853 99° East 468 539 39,000  Level Albuquerque Center
12:48PM 31.8103 -106.2347 100° East 469 540 39,000  Level Albuquerque Center
12:49PM 31.7919 -106.0864 98° East 461 531 39,000  Level Albuquerque Center
12:50PM 31.7700 -105.9042 98° East 468 539 39,000  Level Albuquerque Center
12:51PM 31.7511 -105.7519 98° East 470 541 39,000  Level Albuquerque Center
12:53PM 31.7322 -105.6006 98° East 468 539 39,000  Level Albuquerque Center
12:54PM 31.7142 -105.4478 98° East 470 541 39,000  Level Albuquerque Center
12:55PM 31.6961 -105.2956 98° East 470 541 39,000  Level Albuquerque Center
12:56PM 31.6772 -105.1425 98° East 471 542 39,000  Level Albuquerque Center
12:57PM 31.6575 -104.9917 99° East 469 540 39,000  Level Albuquerque Center
12:58PM 31.6378 -104.8389 99° East 471 542 39,000  Level Albuquerque Center
12:59PM 31.6153 -104.6542 98° East 474 545 39,000  Level Albuquerque Center
01:00PM 31.5944 -104.5014 99° East 474 545 39,000  Level Albuquerque Center
01:01PM 31.5742 -104.3467 99° East 477 549 39,000  Level Albuquerque Center
01:02PM 31.5550 -104.1933 98° East 476 548 39,000  Level Albuquerque Center
01:03PM 31.5336 -104.0386 99° East 479 551 39,000  Level Albuquerque Center
01:04PM 31.5136 -103.8836 99° East 480 552 39,000  Level Albuquerque Center
01:05PM 31.4875 -103.7031 100° East 485 558 39,000  Level Albuquerque Center
01:06PM 31.4664 -103.5481 99° East 483 556 39,000  Level Albuquerque Center
01:07PM 31.4467 -103.3911 98° East 485 558 39,000  Level Albuquerque Center
01:08PM 31.4275 -103.2333 98° East 488 562 39,000  Level Albuquerque Center
01:09PM 31.4072 -103.0761 99° East 490 564 39,000  Level Albuquerque Center
01:10PM 31.3875 -102.9197 98° East 487 560 39,000  Level Albuquerque Center
01:11PM 31.3631 -102.7306 99° East 490 564 39,000  Level Albuquerque Center
01:12PM 31.3428 -102.5744 99° East 488 562 39,000  Level Albuquerque Center
01:13PM 31.3214 -102.4117 99° East 496 571 39,000  Level Albuquerque Center
01:14PM 31.3011 -102.2556 99° East 493 567 39,000  Level Albuquerque Center
01:15PM 31.2808 -102.0986 99° East 492 566 39,000  Level Albuquerque Center
01:16PM 31.2592 -101.9403 99° East 494 568 39,000  Level Albuquerque Center
01:17PM 31.2364 -101.7667 99° East 496 571 39,000  Level Albuquerque Center
01:18PM 31.2133 -101.6047 99° East 503 579 39,000  Level Houston Center
01:19PM 31.1908 -101.4431 99° East 505 581 39,000  Level Houston Center
01:20PM 31.1681 -101.2836 99° East 511 588 39,000  Level Houston Center
01:21PM 31.1450 -101.1175 99° East 515 593 39,000  Level Houston Center
01:22PM 31.1228 -100.9503 99° East 519 597 39,000  Level Houston Center
01:23PM 31.0997 -100.7833 99° East 515 593 39,000  Level Houston Center
01:24PM 31.0764 -100.6192 99° East 519 597 39,000  Level Houston Center
01:25PM 31.0467 -100.4211 100° East 518 596 39,000  Level Houston Center
01:26PM 31.0228 -100.2558 100° East 517 595 39,000  Level Houston Center
01:27PM 30.9992 -100.0906 99° East 515 593 39,000  Level Houston Center
01:28PM 30.9733 -99.9253 100° East 517 595 39,000  Level Houston Center
01:29PM 30.9494 -99.7606 100° East 516 594 39,000  Level Houston Center
01:31PM 30.9336 -99.5950 96° East 513 590 39,000  Level Houston Center
01:32PM 30.9150 -99.4250 97° East 525 604 39,000  Level Houston Center
01:33PM 30.8964 -99.2542 97° East 530 610 39,000  Level Houston Center
01:34PM 30.8742 -99.0578 97° East 532 612 39,000  Level Houston Center
01:35PM 30.8536 -98.8842 98° East 537 618 39,000  Level Houston Center
01:36PM 30.8331 -98.7094 98° East 539 620 39,000  Level Houston Center
01:37PM 30.8147 -98.5350 97° East 540 621 39,000  Level Houston Center
01:38PM 30.7933 -98.3600 98° East 542 624 39,000  Level Houston Center
01:39PM 30.7722 -98.1856 98° East 541 623 39,000  Level Houston Center
01:40PM 30.7525 -98.0117 97° East 540 621 39,000  Level Houston Center
01:41PM 30.7281 -97.8083 98° East 540 621 39,000  Level Houston Center
01:42PM 30.7058 -97.6364 99° East 537 618 39,000 -540 Level Houston Center
01:43PM 30.6847 -97.4644 98° East 538 619 38,000 -2,040 Descending Houston Center
01:44PM 30.6636 -97.2928 98° East 539 620 34,900 -3,300 Descending Houston Center
01:45PM 30.6417 -97.1214 98° East 539 620 31,300 -3,360 Descending Houston Center
01:46PM 30.6208 -96.9567 98° East 519 597 28,100 -3,180 Descending Houston Center
01:47PM 30.5889 -96.8000 103° East 500 575 24,900 -2,940 Descending Houston Center
01:48PM 30.5128 -96.6775 126° Southeast 465 535 22,100 -2,880 Descending Houston Center
01:49PM 30.4247 -96.5422 127° Southeast 446 513 19,100 -2,760 Descending Houston Center
01:50PM 30.3519 -96.4308 127° Southeast 431 496 16,500 -2,700 Descending Houston Center
01:51PM 30.3022 -96.3544 127° Southeast 419 482 14,500 -2,700 Descending Houston Center
01:51PM 30.2814 -96.3225 127° Southeast 420 483 13,800 -2,520 Descending Houston Center
01:51PM 30.2539 -96.2800 127° Southeast 410 472 12,700 -2,520 Descending Houston Center
01:52PM 30.2136 -96.2189 127° Southeast 403 464 11,200 -1,560 Descending Houston Center
01:53PM 30.1661 -96.1836 147° Southeast 369 425 11,000 -240 Descending Houston Center
01:53PM 30.1181 -96.1583 156° South 369 425 11,000  Level Houston Center
01:54PM 30.0736 -96.1336 154° Southeast 362 417 11,000  Level Houston Center
01:54PM 30.0333 -96.0939 140° Southeast 369 425 11,000  Level Houston Center
01:54PM 30.0022 -96.0597 136° Southeast 373 429 11,000  Level Houston Center
01:55PM 29.9581 -96.0114 137° Southeast 372 428 11,000  Level Houston Center
01:56PM 29.9211 -95.9703 136° Southeast 368 423 11,000  Level Houston Center
01:56PM 29.8797 -95.9253 137° Southeast 367 422 11,000  Level Houston Center
01:57PM 29.8492 -95.8917 136° Southeast 363 418 11,000  Level Houston Center
01:57PM 29.8100 -95.8489 137° Southeast 349 402 11,000  Level Houston Center
01:58PM 29.7867 -95.8244 138° Southeast 330 380 11,000 -1,020 Level Houston Center
01:58PM 29.7447 -95.7778 136° Southeast 327 376 10,000 -1,680 Descending Houston Center
01:59PM 29.6839 -95.7114 137° Southeast 307 353 8,200 -1,740 Descending Houston Center
02:00PM 29.6392 -95.6378 125° Southeast 296 341 6,500 -1,860 Descending Houston Center
02:01PM 29.6189 -95.5219 101° East 270 311 4,000 -1,680 Descending Houston Center
02:02PM 29.6094 -95.4708 102° East 267 307 3,100 -900 Descending Houston Center
02:03PM 29.5967 -95.3956 101° East 255 293 2,400 -1,020 Descending Houston Center
02:04PM 29.6006 -95.3250 86° East 224 258 1,100 -1,080 Descending Houston Center
02:05PM 29.6311 -95.2958 40° Northeast 171 197 300 -480 Descending Houston Center
02:06PM 29.6589 -95.2667 42° Northeast 164 189 200 -120 Descending Houston Center
02:08PM 29.6454 -95.2789 115° Southeast  Level Estimated